createdAt,value
2022-12-31T00:00:28.196Z,98738.89
2022-12-31T00:05:51.840Z,98722.37
2022-12-31T00:10:55.620Z,98725.73
2022-12-31T00:15:59.081Z,98732.41
2022-12-31T00:21:03.161Z,98736.67
2022-12-31T00:26:06.707Z,98736.71
2022-12-31T00:31:10.225Z,98745.70
2022-12-31T00:36:13.788Z,98741.72
2022-12-31T00:41:17.531Z,98741.60
2022-12-31T00:46:21.302Z,98747.49
2022-12-31T00:51:27.306Z,98753.60
2022-12-31T00:56:31.143Z,98762.64
2022-12-31T01:01:34.752Z,98765.04
2022-12-31T01:06:38.334Z,98758.27
2022-12-31T01:11:41.891Z,98760.27
2022-12-31T01:16:45.406Z,98763.05
2022-12-31T01:21:49.019Z,98772.92
2022-12-31T01:26:52.507Z,98775.88
2022-12-31T01:31:55.982Z,98788.92
2022-12-31T01:36:59.463Z,98763.75
2022-12-31T01:42:02.975Z,98748.16
2022-12-31T01:47:06.529Z,98748.63
2022-12-31T01:52:10.145Z,98763.44
2022-12-31T01:57:13.667Z,98764.65
2022-12-31T02:02:17.276Z,98768.54
2022-12-31T02:07:20.895Z,98761.07
2022-12-31T02:12:24.372Z,98768.17
2022-12-31T02:17:27.881Z,98771.06
2022-12-31T02:22:31.391Z,98763.80
2022-12-31T02:27:35.586Z,98748.89
2022-12-31T02:32:39.279Z,98730.87
2022-12-31T02:37:42.806Z,98734.12
2022-12-31T02:42:51.528Z,98734.41
2022-12-31T02:47:58.587Z,98716.39
2022-12-31T02:53:02.094Z,98709.40
2022-12-31T02:58:05.571Z,98693.73
2022-12-31T03:03:09.066Z,98685.02
2022-12-31T03:08:12.569Z,98701.06
2022-12-31T03:13:16.075Z,98716.95
2022-12-31T03:18:39.537Z,98732.21
2022-12-31T03:23:43.074Z,98748.59
2022-12-31T03:28:48.205Z,98744.60
2022-12-31T03:33:51.742Z,98733.92
2022-12-31T03:38:55.250Z,98731.33
2022-12-31T03:43:58.737Z,98740.27
2022-12-31T03:49:02.252Z,98742.59
2022-12-31T03:54:05.734Z,98737.14
2022-12-31T03:59:09.263Z,98749.91
2022-12-31T04:04:12.751Z,98752.31
2022-12-31T04:09:16.431Z,98756.16
2022-12-31T04:14:20.118Z,98754.02
2022-12-31T04:19:23.665Z,98752.16
2022-12-31T04:24:27.259Z,98754.59
2022-12-31T04:29:30.747Z,98765.77
2022-12-31T04:34:34.229Z,98768.38
2022-12-31T04:39:37.739Z,98775.80
2022-12-31T04:44:41.235Z,98784.73
2022-12-31T04:49:44.768Z,98789.84
2022-12-31T04:54:48.390Z,98795.70
2022-12-31T04:59:51.934Z,98795.37
2022-12-31T05:04:55.450Z,98796.55
2022-12-31T05:09:58.928Z,98797.00
2022-12-31T05:15:02.602Z,98800.05
2022-12-31T05:20:06.098Z,98799.46
2022-12-31T05:25:09.582Z,98790.20
2022-12-31T05:30:13.053Z,98780.42
2022-12-31T05:35:16.570Z,98772.13
2022-12-31T05:40:20.131Z,98778.67
2022-12-31T05:45:30.158Z,98783.55
2022-12-31T05:50:34.201Z,98790.85
2022-12-31T05:55:37.748Z,98798.83
2022-12-31T06:00:41.221Z,98799.38
2022-12-31T06:05:45.809Z,98793.89
2022-12-31T06:10:49.314Z,98803.67
2022-12-31T06:15:52.862Z,98816.95
2022-12-31T06:20:56.373Z,98822.97
2022-12-31T06:25:59.877Z,98815.52
2022-12-31T06:31:03.426Z,98810.83
2022-12-31T06:36:07.078Z,98807.81
2022-12-31T06:41:11.242Z,98796.87
2022-12-31T06:46:14.775Z,98791.49
2022-12-31T06:51:18.517Z,98801.02
2022-12-31T06:56:26.551Z,98814.55
2022-12-31T07:01:33.273Z,98819.79
2022-12-31T07:06:36.943Z,98837.84
2022-12-31T07:11:40.426Z,98836.67
2022-12-31T07:16:43.922Z,98833.46
2022-12-31T07:21:47.444Z,98836.74
2022-12-31T07:26:56.145Z,98852.26
2022-12-31T07:32:00.453Z,98858.80
2022-12-31T07:37:03.973Z,98854.70
2022-12-31T07:42:07.481Z,98847.30
2022-12-31T07:47:11.042Z,98843.75
2022-12-31T07:52:14.570Z,98850.39
2022-12-31T07:57:18.107Z,98869.97
2022-12-31T08:02:21.696Z,98861.94
2022-12-31T08:07:25.327Z,98870.80
2022-12-31T08:12:28.968Z,98875.45
2022-12-31T08:17:32.604Z,98880.14
2022-12-31T08:22:36.136Z,98879.83
2022-12-31T08:27:40.498Z,98881.12
2022-12-31T08:32:44.007Z,98857.33
2022-12-31T08:37:47.544Z,98853.34
2022-12-31T08:42:51.054Z,98867.21
2022-12-31T08:47:59.703Z,98885.06
2022-12-31T08:53:03.870Z,98895.45
2022-12-31T08:58:07.358Z,98887.47
2022-12-31T09:03:10.865Z,98899.59
2022-12-31T09:08:14.500Z,98889.48
2022-12-31T09:13:18.067Z,98881.27
2022-12-31T09:18:21.583Z,98869.38
2022-12-31T09:23:25.130Z,98855.18
2022-12-31T09:28:28.658Z,98859.86
2022-12-31T09:33:32.179Z,98869.31
2022-12-31T09:38:35.669Z,98872.50
2022-12-31T09:43:39.283Z,98871.31
2022-12-31T09:48:42.796Z,98868.05
2022-12-31T09:53:46.296Z,98872.75
2022-12-31T09:58:49.793Z,98873.23
2022-12-31T10:03:53.317Z,98869.84
2022-12-31T10:08:56.885Z,98865.41
2022-12-31T10:14:00.390Z,98864.06
2022-12-31T10:19:03.909Z,98853.17
2022-12-31T10:24:07.550Z,98853.83
2022-12-31T10:29:11.024Z,98858.35
2022-12-31T10:34:14.546Z,98865.25
2022-12-31T10:39:24.076Z,98866.02
2022-12-31T10:44:28.140Z,98876.49
2022-12-31T10:49:31.702Z,98870.76
2022-12-31T10:54:35.172Z,98883.09
2022-12-31T10:59:38.703Z,98870.45
2022-12-31T11:04:42.195Z,98868.80
2022-12-31T11:09:45.693Z,98859.81
2022-12-31T11:14:49.212Z,98859.04
2022-12-31T11:19:52.738Z,98863.97
2022-12-31T11:24:56.263Z,98865.38
2022-12-31T11:29:59.728Z,98852.64
2022-12-31T11:35:03.334Z,98850.61
2022-12-31T11:40:06.902Z,98845.64
2022-12-31T11:45:10.432Z,98839.17
2022-12-31T11:50:15.279Z,98839.44
2022-12-31T11:55:18.919Z,98837.83
2022-12-31T12:00:22.598Z,98846.86
2022-12-31T12:05:26.088Z,98840.58
2022-12-31T12:10:35.997Z,98835.92
2022-12-31T12:15:40.282Z,98832.88
2022-12-31T12:20:43.981Z,98817.97
2022-12-31T12:25:47.504Z,98816.11
2022-12-31T12:30:51.092Z,98824.52
2022-12-31T12:35:54.576Z,98825.35
2022-12-31T12:40:58.320Z,98818.59
2022-12-31T12:46:01.819Z,98820.27
2022-12-31T12:51:05.479Z,98818.89
2022-12-31T12:56:09.022Z,98809.95
2022-12-31T13:01:12.653Z,98801.76
2022-12-31T13:06:16.370Z,98803.67
2022-12-31T13:11:21.743Z,98791.71
2022-12-31T13:16:25.474Z,98793.95
2022-12-31T13:21:29.181Z,98793.55
2022-12-31T13:26:32.771Z,98798.91
2022-12-31T13:31:36.537Z,98803.20
2022-12-31T13:36:40.191Z,98817.76
2022-12-31T13:41:45.681Z,98826.52
2022-12-31T13:46:49.266Z,98824.48
2022-12-31T13:51:52.809Z,98830.88
2022-12-31T13:56:56.338Z,98837.81
2022-12-31T14:01:59.944Z,98847.50
2022-12-31T14:07:03.751Z,98851.27
2022-12-31T14:12:07.422Z,98856.30
2022-12-31T14:17:10.889Z,98861.40
2022-12-31T14:22:14.348Z,98853.98
2022-12-31T14:27:17.851Z,98859.38
2022-12-31T14:32:22.407Z,98855.63
2022-12-31T14:37:25.893Z,98867.89
2022-12-31T14:42:29.383Z,98869.51
2022-12-31T14:47:32.894Z,98857.33
2022-12-31T14:52:36.372Z,98859.92
2022-12-31T14:58:09.620Z,98868.10
2022-12-31T15:03:03.364Z,98863.73
2022-12-31T15:08:07.024Z,98858.39
2022-12-31T15:13:10.514Z,98863.63
2022-12-31T15:18:14.025Z,98863.20
2022-12-31T15:23:18.605Z,98867.60
2022-12-31T15:28:22.215Z,98872.45
2022-12-31T15:33:25.762Z,98876.89
2022-12-31T15:38:29.256Z,98882.57
2022-12-31T15:43:32.771Z,98885.30
2022-12-31T15:48:36.278Z,98890.40
2022-12-31T15:53:39.744Z,98886.77
2022-12-31T15:58:43.280Z,98891.48
2022-12-31T16:03:46.867Z,98896.95
2022-12-31T16:08:50.400Z,98899.84
2022-12-31T16:13:53.924Z,98893.20
2022-12-31T16:18:57.560Z,98894.63
2022-12-31T16:24:01.178Z,98899.42
2022-12-31T16:29:05.392Z,98897.08
2022-12-31T16:34:08.945Z,98900.91
2022-12-31T16:39:12.462Z,98905.71
2022-12-31T16:44:15.965Z,98910.80
2022-12-31T16:49:19.476Z,98918.66
2022-12-31T16:54:23.019Z,98926.86
2022-12-31T16:59:29.300Z,98938.59
2022-12-31T17:04:40.004Z,98927.53
2022-12-31T17:09:49.752Z,98922.25
2022-12-31T17:14:53.294Z,98923.52
2022-12-31T17:19:56.807Z,98922.77
2022-12-31T17:25:00.803Z,98932.88
2022-12-31T17:30:04.484Z,98926.42
2022-12-31T17:35:08.019Z,98930.49
2022-12-31T17:40:49.412Z,98930.64
2022-12-31T17:45:34.979Z,98933.54
2022-12-31T17:50:38.472Z,98939.15
2022-12-31T17:55:42.415Z,98944.02
2022-12-31T18:00:45.942Z,98948.48
2022-12-31T18:05:49.549Z,98954.56
2022-12-31T18:10:53.054Z,98955.64
2022-12-31T18:15:56.624Z,98959.13
2022-12-31T18:21:00.340Z,98958.83
2022-12-31T18:26:04.184Z,98958.67
2022-12-31T18:31:07.777Z,98954.69
2022-12-31T18:36:11.502Z,98950.84
2022-12-31T18:41:15.025Z,98956.17
2022-12-31T18:46:18.569Z,98953.83
2022-12-31T18:51:31.029Z,98958.66
2022-12-31T18:56:35.583Z,98956.89
2022-12-31T19:01:39.242Z,98965.18
2022-12-31T19:06:42.838Z,98957.59
2022-12-31T19:11:46.758Z,98959.33
2022-12-31T19:16:50.282Z,98952.48
2022-12-31T19:21:53.790Z,98964.86
2022-12-31T19:26:57.303Z,98973.20
2022-12-31T19:32:02.343Z,98976.95
2022-12-31T19:37:06.001Z,98978.33
2022-12-31T19:42:09.567Z,98974.60
2022-12-31T19:47:13.046Z,98961.96
2022-12-31T19:52:16.627Z,98962.10
2022-12-31T19:57:20.124Z,98982.35
2022-12-31T20:02:23.693Z,98994.48
2022-12-31T20:07:27.482Z,98993.83
2022-12-31T20:12:31.078Z,98988.85
2022-12-31T20:17:35.143Z,98994.79
2022-12-31T20:22:38.667Z,98996.23
2022-12-31T20:27:42.155Z,98986.68
2022-12-31T20:32:46.665Z,98988.64
2022-12-31T20:37:50.239Z,98981.95
2022-12-31T20:42:53.755Z,98977.31
2022-12-31T20:47:57.279Z,98971.75
2022-12-31T20:53:00.824Z,98963.91
2022-12-31T20:58:05.585Z,98965.29
2022-12-31T21:03:30.045Z,98964.44
2022-12-31T21:08:35.019Z,98973.83
2022-12-31T21:13:38.927Z,98978.98
2022-12-31T21:18:42.415Z,98978.89
2022-12-31T21:23:46.111Z,98968.30
2022-12-31T21:28:49.612Z,98966.14
2022-12-31T21:33:53.122Z,98986.34
2022-12-31T21:38:56.673Z,98995.84
2022-12-31T21:44:00.275Z,98992.97
2022-12-31T21:49:03.779Z,98994.70
2022-12-31T21:54:27.241Z,98998.46
2022-12-31T22:00:03.173Z,99000.21
2022-12-31T22:05:18.633Z,99010.64
2022-12-31T22:10:25.127Z,99024.49
2022-12-31T22:15:28.793Z,99024.05
2022-12-31T22:20:32.288Z,99027.04
2022-12-31T22:25:35.986Z,99023.23
2022-12-31T22:30:39.494Z,99029.99
2022-12-31T22:35:43.042Z,99021.09
2022-12-31T22:40:46.562Z,99027.77
2022-12-31T22:45:50.197Z,99030.98
2022-12-31T22:50:53.673Z,99030.13
2022-12-31T22:55:57.195Z,99022.73
2022-12-31T23:01:00.713Z,99023.16
2022-12-31T23:06:04.489Z,99020.19
2022-12-31T23:11:09.667Z,99021.75
2022-12-31T23:16:31.213Z,99024.14
2022-12-31T23:21:52.755Z,99020.29
2022-12-31T23:26:56.287Z,99025.16
2022-12-31T23:31:59.832Z,99016.78
2022-12-31T23:37:04.363Z,99018.08
2022-12-31T23:42:07.908Z,99021.02
2022-12-31T23:47:11.524Z,99023.11
2022-12-31T23:52:15.123Z,99032.67
2022-12-31T23:57:18.824Z,99028.75
